Baddeck, Canada
Current Conditions -  °F | °C
As of 3:00 PM on Monday 22 Dec 2014 (Local Time) from CYQY Reporting Station
Overcast Overcast  
Wind Chill: 21°   Ceiling: 1700
Heat Index: 28°   Visibility: 15mi
Dew Point: 23°   Wind: 7mph
Humidity: 80%   Direction: 320°NW
Pressure: 30.43"   Gusts: NA
Location:  46.1°N, 60.75°W
Report Text: CYQY 221900Z 32006KT 15SM OVC017 M02/M05 A3043 RMK SC8 SLP309
Loading
Personal Weather Stations






























Interactive Weather Map New forecast layout! Learn more

10-Day Weather Forecast

Advertisements
Track Severe Weather on mobile